Enter the Airport ICAO Code

Search by Airport or City

Current Weather

MDPC | Punta Cana International Airport

Punta Cana, Dominican Republic

Last Update 1 Hour Ago

Mostly Cloudy Sky

Temperature of 25 ºC

Light to Moderate Winds from East

Temperature

25 ºC

Dew Point Temperature

21 ºC

Relative Humidity

78.61 %

Wind Direction

East (070º, Without Significant Variations)

Wind Velocity

15 km/h (08 kt)

Gusts

None

Visibility

Greater than 10 Kilometers

Sea Level Pressure

1017 hPa (Hectopascals)

Layers of Clouds

60% to 90% of Sky Covered from 488 mts (1600 ft) Above Ground Level.

METAR MDPC 090900Z 07008KT 9999 BKN016 25/21 Q1017

Weather Forecast

MDPC | Punta Cana International Airport

Punta Cana, Dominican Republic

Forecast valid for the next 26 Hours

In 2 hours it is expected the begining of:

Sky with Few Clouds

Moderate Winds from NorthEast

Maximum Temperature

No Data

Minimum Temperature

No Data

TAF MDPC 091000Z 0912/1012 05015KT 9999 FEW018 PROB30 0912/0918 7000 -RA BKN016